sensor_id;sensor_type;location;lat;lon;timestamp;pressure;altitude;pressure_sealevel;temperature;humidity
75656;BME280;64252;51.094;13.714;2023-04-24T00:01:55;99177.06;;;10.43;98.06
75656;BME280;64252;51.094;13.714;2023-04-24T00:04:21;99164.63;;;10.40;98.39
75656;BME280;64252;51.094;13.714;2023-04-24T00:06:47;99164.22;;;10.38;98.03
75656;BME280;64252;51.094;13.714;2023-04-24T00:09:14;99172.25;;;10.43;99.05
75656;BME280;64252;51.094;13.714;2023-04-24T00:11:41;99170.59;;;10.46;97.69
75656;BME280;64252;51.094;13.714;2023-04-24T00:14:06;99160.88;;;10.50;97.90
75656;BME280;64252;51.094;13.714;2023-04-24T00:16:32;99166.44;;;10.57;97.82
75656;BME280;64252;51.094;13.714;2023-04-24T00:18:57;99177.28;;;10.63;98.03
75656;BME280;64252;51.094;13.714;2023-04-24T00:21:23;99197.00;;;10.66;97.51
75656;BME280;64252;51.094;13.714;2023-04-24T00:23:50;99194.56;;;10.68;97.50
75656;BME280;64252;51.094;13.714;2023-04-24T00:26:16;99184.91;;;10.66;97.42
75656;BME280;64252;51.094;13.714;2023-04-24T00:28:42;99186.13;;;10.65;97.28
75656;BME280;64252;51.094;13.714;2023-04-24T00:31:07;99185.75;;;10.63;96.61
75656;BME280;64252;51.094;13.714;2023-04-24T00:33:33;99184.88;;;10.69;97.80
75656;BME280;64252;51.094;13.714;2023-04-24T00:35:59;99195.75;;;10.71;97.20
75656;BME280;64252;51.094;13.714;2023-04-24T00:38:24;99178.44;;;10.69;96.70
75656;BME280;64252;51.094;13.714;2023-04-24T00:40:50;99185.66;;;10.73;96.81
75656;BME280;64252;51.094;13.714;2023-04-24T00:43:16;99187.22;;;10.74;97.35
75656;BME280;64252;51.094;13.714;2023-04-24T00:45:43;99193.69;;;10.75;97.11
75656;BME280;64252;51.094;13.714;2023-04-24T00:48:08;99188.09;;;10.71;97.01
75656;BME280;64252;51.094;13.714;2023-04-24T00:50:36;99183.59;;;10.74;96.25
75656;BME280;64252;51.094;13.714;2023-04-24T00:53:02;99173.47;;;10.80;96.51
75656;BME280;64252;51.094;13.714;2023-04-24T00:55:27;99184.75;;;10.80;96.49
75656;BME280;64252;51.094;13.714;2023-04-24T00:57:53;99183.94;;;10.83;97.00
75656;BME280;64252;51.094;13.714;2023-04-24T01:00:19;99178.94;;;10.94;96.20
75656;BME280;64252;51.094;13.714;2023-04-24T01:02:45;99173.31;;;10.94;95.86
75656;BME280;64252;51.094;13.714;2023-04-24T01:05:12;99173.25;;;10.97;96.21
75656;BME280;64252;51.094;13.714;2023-04-24T01:07:39;99163.19;;;10.96;95.45
75656;BME280;64252;51.094;13.714;2023-04-24T01:10:07;99167.69;;;10.90;96.02
75656;BME280;64252;51.094;13.714;2023-04-24T01:12:34;99169.31;;;10.88;96.10
75656;BME280;64252;51.094;13.714;2023-04-24T01:14:59;99166.94;;;10.86;96.79
75656;BME280;64252;51.094;13.714;2023-04-24T01:17:25;99172.25;;;10.81;96.34
75656;BME280;64252;51.094;13.714;2023-04-24T01:19:50;99167.81;;;10.80;96.22
75656;BME280;64252;51.094;13.714;2023-04-24T01:22:22;99179.16;;;10.76;96.67
75656;BME280;64252;51.094;13.714;2023-04-24T01:24:48;99167.50;;;10.71;97.58
75656;BME280;64252;51.094;13.714;2023-04-24T01:27:14;99168.81;;;10.63;97.58
75656;BME280;64252;51.094;13.714;2023-04-24T01:29:40;99177.34;;;10.55;98.85
75656;BME280;64252;51.094;13.714;2023-04-24T01:32:06;99179.81;;;10.53;98.27
75656;BME280;64252;51.094;13.714;2023-04-24T01:34:32;99183.44;;;10.50;99.08
75656;BME280;64252;51.094;13.714;2023-04-24T01:36:58;99168.13;;;10.51;98.78
75656;BME280;64252;51.094;13.714;2023-04-24T01:39:23;99178.59;;;10.54;98.36
75656;BME280;64252;51.094;13.714;2023-04-24T01:41:52;99181.72;;;10.64;97.84
75656;BME280;64252;51.094;13.714;2023-04-24T01:44:19;99173.56;;;10.73;97.66
75656;BME280;64252;51.094;13.714;2023-04-24T01:46:44;99171.91;;;10.75;97.54
75656;BME280;64252;51.094;13.714;2023-04-24T01:49:10;99170.28;;;10.78;97.46
75656;BME280;64252;51.094;13.714;2023-04-24T01:51:37;99174.25;;;10.80;96.58
75656;BME280;64252;51.094;13.714;2023-04-24T01:54:03;99180.72;;;10.81;96.97
75656;BME280;64252;51.094;13.714;2023-04-24T01:56:29;99167.34;;;10.85;96.61
75656;BME280;64252;51.094;13.714;2023-04-24T01:58:56;99163.69;;;10.88;96.40
75656;BME280;64252;51.094;13.714;2023-04-24T02:01:25;99166.50;;;10.88;96.25
75656;BME280;64252;51.094;13.714;2023-04-24T02:03:51;99172.88;;;10.95;96.36
75656;BME280;64252;51.094;13.714;2023-04-24T02:06:17;99171.69;;;10.93;96.71
75656;BME280;64252;51.094;13.714;2023-04-24T02:08:42;99167.66;;;10.94;96.97
75656;BME280;64252;51.094;13.714;2023-04-24T02:11:09;99167.66;;;10.94;96.42
75656;BME280;64252;51.094;13.714;2023-04-24T02:13:34;99176.53;;;10.92;97.22
75656;BME280;64252;51.094;13.714;2023-04-24T02:16:00;99166.84;;;10.93;96.19
75656;BME280;64252;51.094;13.714;2023-04-24T02:18:26;99167.66;;;10.94;96.32
75656;BME280;64252;51.094;13.714;2023-04-24T02:20:51;99170.00;;;10.99;97.02
75656;BME280;64252;51.094;13.714;2023-04-24T02:23:17;99170.00;;;10.99;97.11
75656;BME280;64252;51.094;13.714;2023-04-24T02:25:44;99160.31;;;11.00;96.64
75656;BME280;64252;51.094;13.714;2023-04-24T02:28:09;99169.16;;;11.02;96.37
75656;BME280;64252;51.094;13.714;2023-04-24T02:30:35;99167.19;;;10.99;96.05
75656;BME280;64252;51.094;13.714;2023-04-24T02:33:01;99162.41;;;10.96;97.24
75656;BME280;64252;51.094;13.714;2023-04-24T02:35:26;99166.84;;;10.97;97.20
75656;BME280;64252;51.094;13.714;2023-04-24T02:37:52;99164.81;;;10.94;97.25
75656;BME280;64252;51.094;13.714;2023-04-24T02:40:17;99170.13;;;10.92;97.17
75656;BME280;64252;51.094;13.714;2023-04-24T02:42:43;99169.31;;;10.88;98.01
75656;BME280;64252;51.094;13.714;2023-04-24T02:45:09;99171.78;;;10.86;97.48
75656;BME280;64252;51.094;13.714;2023-04-24T02:47:34;99166.09;;;10.89;98.19
75656;BME280;64252;51.094;13.714;2023-04-24T02:50:01;99166.50;;;10.88;97.72
75656;BME280;64252;51.094;13.714;2023-04-24T02:52:28;99169.38;;;10.84;98.61
75656;BME280;64252;51.094;13.714;2023-04-24T02:54:53;99172.63;;;10.83;97.99
75656;BME280;64252;51.094;13.714;2023-04-24T02:57:19;99160.56;;;10.79;98.53
75656;BME280;64252;51.094;13.714;2023-04-24T02:59:45;99157.38;;;10.77;98.77
75656;BME280;64252;51.094;13.714;2023-04-24T03:02:10;99164.63;;;10.78;98.82
75656;BME280;64252;51.094;13.714;2023-04-24T03:04:36;99157.38;;;10.77;98.35
75656;BME280;64252;51.094;13.714;2023-04-24T03:07:02;99150.56;;;10.71;98.70
75656;BME280;64252;51.094;13.714;2023-04-24T03:09:27;99155.84;;;10.69;99.51
75656;BME280;64252;51.094;13.714;2023-04-24T03:11:53;99155.84;;;10.69;99.28
75656;BME280;64252;51.094;13.714;2023-04-24T03:14:18;99155.00;;;10.72;99.05
75656;BME280;64252;51.094;13.714;2023-04-24T03:16:44;99154.16;;;10.75;98.35
75656;BME280;64252;51.094;13.714;2023-04-24T03:19:10;99149.72;;;10.74;98.95
75656;BME280;64252;51.094;13.714;2023-04-24T03:21:44;99153.34;;;10.74;97.98
75656;BME280;64252;51.094;13.714;2023-04-24T03:24:10;99155.75;;;10.76;99.11
75656;BME280;64252;51.094;13.714;2023-04-24T03:26:36;99147.69;;;10.74;98.43
75656;BME280;64252;51.094;13.714;2023-04-24T03:29:38;99151.25;;;10.82;96.62
75656;BME280;64252;51.094;13.714;2023-04-24T03:32:04;99158.53;;;10.83;95.99
75656;BME280;64252;51.094;13.714;2023-04-24T03:34:31;99161.34;;;10.83;97.59
75656;BME280;64252;51.094;13.714;2023-04-24T03:36:57;99159.75;;;10.82;96.54
75656;BME280;64252;51.094;13.714;2023-04-24T03:39:24;99163.38;;;10.79;96.13
75656;BME280;64252;51.094;13.714;2023-04-24T03:41:53;99164.66;;;10.74;96.60
75656;BME280;64252;51.094;13.714;2023-04-24T03:44:23;99164.69;;;10.71;96.15
75656;BME280;64252;51.094;13.714;2023-04-24T03:46:49;99169.13;;;10.72;96.75
75656;BME280;64252;51.094;13.714;2023-04-24T03:49:16;99168.66;;;10.77;95.00
75656;BME280;64252;51.094;13.714;2023-04-24T03:51:44;99173.41;;;10.87;93.67
75656;BME280;64252;51.094;13.714;2023-04-24T03:54:18;99178.13;;;10.97;93.00
75656;BME280;64252;51.094;13.714;2023-04-24T03:56:44;99181.25;;;11.02;92.13
75656;BME280;64252;51.094;13.714;2023-04-24T03:59:10;99185.28;;;11.05;91.41
75656;BME280;64252;51.094;13.714;2023-04-24T04:01:37;99193.31;;;11.10;91.43
75656;BME280;64252;51.094;13.714;2023-04-24T04:04:09;99192.78;;;11.19;90.85
75656;BME280;64252;51.094;13.714;2023-04-24T04:06:36;99193.88;;;11.28;90.43
75656;BME280;64252;51.094;13.714;2023-04-24T04:09:02;99189.72;;;11.36;89.30
75656;BME280;64252;51.094;13.714;2023-04-24T04:11:29;99204.94;;;11.46;88.00
75656;BME280;64252;51.094;13.714;2023-04-24T04:13:55;99191.88;;;11.56;86.93
75656;BME280;64252;51.094;13.714;2023-04-24T04:16:22;99190.19;;;11.62;86.89
75656;BME280;64252;51.094;13.714;2023-04-24T04:18:51;99190.94;;;11.66;85.88
75656;BME280;64252;51.094;13.714;2023-04-24T04:21:16;99189.34;;;11.65;86.71
75656;BME280;64252;51.094;13.714;2023-04-24T04:23:43;99193.38;;;11.64;86.25
75656;BME280;64252;51.094;13.714;2023-04-24T04:26:16;99195.47;;;11.60;87.79
75656;BME280;64252;51.094;13.714;2023-04-24T04:29:02;99195.09;;;11.58;86.71
75656;BME280;64252;51.094;13.714;2023-04-24T04:31:29;99194.66;;;11.59;85.94
75656;BME280;64252;51.094;13.714;2023-04-24T04:33:58;99195.47;;;11.60;85.85
75656;BME280;64252;51.094;13.714;2023-04-24T04:36:24;99195.84;;;11.62;86.02
75656;BME280;64252;51.094;13.714;2023-04-24T04:38:58;99195.47;;;11.60;85.67
75656;BME280;64252;51.094;13.714;2023-04-24T04:41:53;99201.56;;;11.58;85.98
75656;BME280;64252;51.094;13.714;2023-04-24T04:44:21;99196.38;;;11.53;86.75
75656;BME280;64252;51.094;13.714;2023-04-24T04:46:47;99195.94;;;11.55;86.17
75656;BME280;64252;51.094;13.714;2023-04-24T04:49:27;99200.38;;;11.56;85.82
75656;BME280;64252;51.094;13.714;2023-04-24T04:51:54;99195.09;;;11.58;85.26
75656;BME280;64252;51.094;13.714;2023-04-24T04:54:22;99198.22;;;11.67;85.54
75656;BME280;64252;51.094;13.714;2023-04-24T04:56:50;99198.88;;;11.78;84.93
75656;BME280;64252;51.094;13.714;2023-04-24T04:59:15;99197.91;;;11.88;84.79
75656;BME280;64252;51.094;13.714;2023-04-24T05:01:41;99206.56;;;12.04;82.96
75656;BME280;64252;51.094;13.714;2023-04-24T05:04:09;99207.16;;;12.19;83.12
75656;BME280;64252;51.094;13.714;2023-04-24T05:06:36;99203.63;;;12.35;81.04
75656;BME280;64252;51.094;13.714;2023-04-24T05:09:01;99201.78;;;12.48;81.23
75656;BME280;64252;51.094;13.714;2023-04-24T05:11:44;99203.22;;;12.59;80.21
75656;BME280;64252;51.094;13.714;2023-04-24T05:14:10;99210.72;;;12.69;79.33
75656;BME280;64252;51.094;13.714;2023-04-24T05:16:39;99206.91;;;12.80;79.62
75656;BME280;64252;51.094;13.714;2023-04-24T05:19:06;99215.63;;;12.89;78.09
75656;BME280;64252;51.094;13.714;2023-04-24T05:21:35;99203.66;;;13.01;78.31
75656;BME280;64252;51.094;13.714;2023-04-24T05:24:01;99198.19;;;13.13;77.85
75656;BME280;64252;51.094;13.714;2023-04-24T05:26:44;99206.09;;;13.22;77.56
75656;BME280;64252;51.094;13.714;2023-04-24T05:29:11;99205.59;;;13.27;77.00
75656;BME280;64252;51.094;13.714;2023-04-24T05:31:37;99207.16;;;13.28;77.44
75656;BME280;64252;51.094;13.714;2023-04-24T05:34:03;99207.13;;;13.32;76.23
75656;BME280;64252;51.094;13.714;2023-04-24T05:36:28;99202.69;;;13.31;76.61
75656;BME280;64252;51.094;13.714;2023-04-24T05:38:55;99202.97;;;13.36;76.88
75656;BME280;64252;51.094;13.714;2023-04-24T05:41:23;99199.53;;;13.45;76.92
75656;BME280;64252;51.094;13.714;2023-04-24T05:43:49;99200.19;;;13.52;75.16
75656;BME280;64252;51.094;13.714;2023-04-24T05:46:15;99204.03;;;13.62;76.58
75656;BME280;64252;51.094;13.714;2023-04-24T05:48:41;99202.09;;;13.75;75.79
75656;BME280;64252;51.094;13.714;2023-04-24T05:51:06;99208.59;;;13.76;76.90
75656;BME280;64252;51.094;13.714;2023-04-24T05:53:33;99204.63;;;13.89;73.47
75656;BME280;64252;51.094;13.714;2023-04-24T05:55:59;99207.31;;;13.96;73.25
75656;BME280;64252;51.094;13.714;2023-04-24T05:58:26;99216.19;;;14.15;73.04
75656;BME280;64252;51.094;13.714;2023-04-24T06:00:52;99217.09;;;14.28;72.61
75656;BME280;64252;51.094;13.714;2023-04-24T06:03:17;99216.78;;;14.42;72.09
75656;BME280;64252;51.094;13.714;2023-04-24T06:05:43;99215.19;;;14.57;71.79
75656;BME280;64252;51.094;13.714;2023-04-24T06:08:09;99224.06;;;14.59;72.01
75656;BME280;64252;51.094;13.714;2023-04-24T06:10:38;99225.56;;;14.64;70.88
75656;BME280;64252;51.094;13.714;2023-04-24T06:13:05;99218.19;;;14.82;70.38
75656;BME280;64252;51.094;13.714;2023-04-24T06:15:34;99213.53;;;14.88;69.80
75656;BME280;64252;51.094;13.714;2023-04-24T06:18:07;99208.06;;;14.81;68.80
75656;BME280;64252;51.094;13.714;2023-04-24T06:20:36;99210.50;;;14.96;69.27
75656;BME280;64252;51.094;13.714;2023-04-24T06:23:01;99218.03;;;15.02;69.24
75656;BME280;64252;51.094;13.714;2023-04-24T06:25:27;99214.56;;;15.11;68.08
75656;BME280;64252;51.094;13.714;2023-04-24T06:27:53;99218.16;;;15.27;69.01
75656;BME280;64252;51.094;13.714;2023-04-24T06:30:19;99206.66;;;15.31;67.18
75656;BME280;64252;51.094;13.714;2023-04-24T06:32:45;99214.38;;;15.30;66.47
75656;BME280;64252;51.094;13.714;2023-04-24T06:35:10;99211.84;;;15.49;67.46
75656;BME280;64252;51.094;13.714;2023-04-24T06:37:39;99225.09;;;15.55;66.75
75656;BME280;64252;51.094;13.714;2023-04-24T06:40:05;99230.03;;;15.67;66.27
75656;BME280;64252;51.094;13.714;2023-04-24T06:42:31;99222.06;;;15.88;66.15
75656;BME280;64252;51.094;13.714;2023-04-24T06:44:56;99226.88;;;16.16;64.02
75656;BME280;64252;51.094;13.714;2023-04-24T06:47:22;99235.78;;;16.18;63.88
75656;BME280;64252;51.094;13.714;2023-04-24T06:49:48;99223.59;;;16.43;63.31
75656;BME280;64252;51.094;13.714;2023-04-24T06:52:13;99240.22;;;16.70;63.88
75656;BME280;64252;51.094;13.714;2023-04-24T06:54:39;99220.81;;;16.77;61.92
75656;BME280;64252;51.094;13.714;2023-04-24T06:57:04;99219.09;;;17.14;62.14
75656;BME280;64252;51.094;13.714;2023-04-24T06:59:30;99215.56;;;17.10;60.97
75656;BME280;64252;51.094;13.714;2023-04-24T07:01:56;99231.97;;;16.84;61.14
75656;BME280;64252;51.094;13.714;2023-04-24T07:04:21;99219.00;;;17.05;61.19
75656;BME280;64252;51.094;13.714;2023-04-24T07:06:48;99220.00;;;17.45;60.34
75656;BME280;64252;51.094;13.714;2023-04-24T07:09:14;99220.97;;;17.51;61.23
75656;BME280;64252;51.094;13.714;2023-04-24T07:11:41;99221.97;;;18.01;58.03
75656;BME280;64252;51.094;13.714;2023-04-24T07:14:07;99221.94;;;18.63;57.80
75656;BME280;64252;51.094;13.714;2023-04-24T07:16:33;99224.34;;;18.33;57.52
75656;BME280;64252;51.094;13.714;2023-04-24T07:18:58;99224.38;;;18.52;57.26
75656;BME280;64252;51.094;13.714;2023-04-24T07:21:24;99231.84;;;18.40;57.19
75656;BME280;64252;51.094;13.714;2023-04-24T07:23:51;99230.34;;;18.26;56.77
75656;BME280;64252;51.094;13.714;2023-04-24T07:26:16;99237.75;;;17.84;57.51
75656;BME280;64252;51.094;13.714;2023-04-24T07:28:42;99230.16;;;17.90;56.93
75656;BME280;64252;51.094;13.714;2023-04-24T07:31:08;99232.19;;;18.11;58.27
75656;BME280;64252;51.094;13.714;2023-04-24T07:33:33;99224.88;;;18.10;56.95
75656;BME280;64252;51.094;13.714;2023-04-24T07:35:59;99238.44;;;17.97;57.61
75656;BME280;64252;51.094;13.714;2023-04-24T07:38:25;99239.31;;;17.85;57.53
75656;BME280;64252;51.094;13.714;2023-04-24T07:40:51;99250.03;;;17.72;58.28
75656;BME280;64252;51.094;13.714;2023-04-24T07:43:19;99242.84;;;17.67;59.38
75656;BME280;64252;51.094;13.714;2023-04-24T07:45:45;99250.97;;;17.69;58.21
75656;BME280;64252;51.094;13.714;2023-04-24T07:48:11;99247.97;;;17.72;58.01
75656;BME280;64252;51.094;13.714;2023-04-24T07:50:39;99239.91;;;17.80;58.59
75656;BME280;64252;51.094;13.714;2023-04-24T07:53:05;99244.97;;;17.76;58.28
75656;BME280;64252;51.094;13.714;2023-04-24T07:55:30;99242.75;;;17.36;59.81
75656;BME280;64252;51.094;13.714;2023-04-24T07:57:56;99249.06;;;17.53;59.28
75656;BME280;64252;51.094;13.714;2023-04-24T08:00:22;99244.81;;;17.58;58.69
75656;BME280;64252;51.094;13.714;2023-04-24T08:02:47;99257.41;;;17.47;58.58
75656;BME280;64252;51.094;13.714;2023-04-24T08:05:13;99245.53;;;17.49;57.52
75656;BME280;64252;51.094;13.714;2023-04-24T08:07:38;99245.09;;;17.50;58.07
75656;BME280;64252;51.094;13.714;2023-04-24T08:10:04;99243.00;;;17.64;57.66
75656;BME280;64252;51.094;13.714;2023-04-24T08:12:30;99235.94;;;17.77;56.96
75656;BME280;64252;51.094;13.714;2023-04-24T08:14:56;99238.16;;;18.04;56.52
75656;BME280;64252;51.094;13.714;2023-04-24T08:17:21;99240.38;;;18.80;56.95
75656;BME280;64252;51.094;13.714;2023-04-24T08:19:47;99253.66;;;19.23;55.46
75656;BME280;64252;51.094;13.714;2023-04-24T08:22:14;99248.09;;;19.38;53.46
75656;BME280;64252;51.094;13.714;2023-04-24T08:24:40;99248.81;;;18.83;53.22
75656;BME280;64252;51.094;13.714;2023-04-24T08:27:06;99250.41;;;18.35;54.56
75656;BME280;64252;51.094;13.714;2023-04-24T08:29:31;99255.34;;;17.82;56.06
75656;BME280;64252;51.094;13.714;2023-04-24T08:31:57;99258.38;;;17.66;56.46
75656;BME280;64252;51.094;13.714;2023-04-24T08:34:23;99260.69;;;17.02;57.59
75656;BME280;64252;51.094;13.714;2023-04-24T08:36:48;99255.81;;;16.78;58.69
75656;BME280;64252;51.094;13.714;2023-04-24T08:39:14;99259.81;;;16.55;59.25
75656;BME280;64252;51.094;13.714;2023-04-24T08:41:44;99261.53;;;16.52;58.55
75656;BME280;64252;51.094;13.714;2023-04-24T08:44:11;99261.56;;;16.65;58.13
75656;BME280;64252;51.094;13.714;2023-04-24T08:46:39;99275.44;;;16.88;58.39
75656;BME280;64252;51.094;13.714;2023-04-24T08:49:06;99262.59;;;17.18;57.19
75656;BME280;64252;51.094;13.714;2023-04-24T08:51:31;99255.53;;;17.88;56.53
75656;BME280;64252;51.094;13.714;2023-04-24T08:53:57;99254.38;;;18.07;57.07
75656;BME280;64252;51.094;13.714;2023-04-24T08:56:23;99251.66;;;18.34;53.71
75656;BME280;64252;51.094;13.714;2023-04-24T08:58:53;99261.84;;;17.83;54.06
75656;BME280;64252;51.094;13.714;2023-04-24T09:01:24;99262.38;;;17.69;52.78
75656;BME280;64252;51.094;13.714;2023-04-24T09:03:51;99267.34;;;17.77;52.31
75656;BME280;64252;51.094;13.714;2023-04-24T09:06:17;99265.56;;;17.92;52.05
75656;BME280;64252;51.094;13.714;2023-04-24T09:08:45;99264.69;;;17.83;52.15
75656;BME280;64252;51.094;13.714;2023-04-24T09:11:11;99263.34;;;18.27;51.48
75656;BME280;64252;51.094;13.714;2023-04-24T09:13:37;99259.94;;;18.41;51.54
75656;BME280;64252;51.094;13.714;2023-04-24T09:16:03;99261.00;;;18.66;51.19
75656;BME280;64252;51.094;13.714;2023-04-24T09:18:29;99260.91;;;18.08;52.01
75656;BME280;64252;51.094;13.714;2023-04-24T09:20:59;99264.25;;;17.84;52.96
75656;BME280;64252;51.094;13.714;2023-04-24T09:23:30;99271.53;;;17.64;52.43
75656;BME280;64252;51.094;13.714;2023-04-24T09:25:56;99268.13;;;17.56;52.73
75656;BME280;64252;51.094;13.714;2023-04-24T09:28:34;99265.19;;;17.60;53.87
75656;BME280;64252;51.094;13.714;2023-04-24T09:33:32;99266.91;;;17.79;53.42
75656;BME280;64252;51.094;13.714;2023-04-24T09:35:57;99264.25;;;17.84;54.97
75656;BME280;64252;51.094;13.714;2023-04-24T09:38:37;99270.00;;;17.72;53.11
75656;BME280;64252;51.094;13.714;2023-04-24T09:41:06;99267.00;;;17.75;53.84
75656;BME280;64252;51.094;13.714;2023-04-24T09:43:32;99254.47;;;18.25;53.01
75656;BME280;64252;51.094;13.714;2023-04-24T09:45:58;99261.94;;;18.54;53.24
75656;BME280;64252;51.094;13.714;2023-04-24T09:48:33;99260.66;;;17.93;51.70
75656;BME280;64252;51.094;13.714;2023-04-24T09:51:03;99259.69;;;18.27;53.12
75656;BME280;64252;51.094;13.714;2023-04-24T09:53:29;99257.19;;;18.60;53.33
75656;BME280;64252;51.094;13.714;2023-04-24T09:56:02;99255.78;;;18.64;51.94
75656;BME280;64252;51.094;13.714;2023-04-24T09:58:28;99256.16;;;19.03;50.94
75656;BME280;64252;51.094;13.714;2023-04-24T10:00:55;99262.66;;;18.45;50.90
75656;BME280;64252;51.094;13.714;2023-04-24T10:03:25;99259.00;;;18.45;51.38
75656;BME280;64252;51.094;13.714;2023-04-24T10:05:53;99253.19;;;17.95;52.14
75656;BME280;64252;51.094;13.714;2023-04-24T10:08:20;99251.84;;;17.44;51.71
75656;BME280;64252;51.094;13.714;2023-04-24T10:10:46;99256.38;;;17.54;52.89
75656;BME280;64252;51.094;13.714;2023-04-24T10:13:13;99264.06;;;17.23;52.88
75656;BME280;64252;51.094;13.714;2023-04-24T10:15:41;99264.16;;;17.19;55.64
75656;BME280;64252;51.094;13.714;2023-04-24T10:18:07;99261.38;;;17.28;53.15
75656;BME280;64252;51.094;13.714;2023-04-24T10:20:35;99249.44;;;17.42;53.02
75656;BME280;64252;51.094;13.714;2023-04-24T10:23:02;99250.63;;;17.88;52.92
75656;BME280;64252;51.094;13.714;2023-04-24T10:25:30;99253.44;;;18.10;53.65
75656;BME280;64252;51.094;13.714;2023-04-24T10:27:57;99245.41;;;18.27;52.22
75656;BME280;64252;51.094;13.714;2023-04-24T10:30:26;99246.91;;;18.40;51.51
75656;BME280;64252;51.094;13.714;2023-04-24T10:32:52;99241.59;;;18.61;50.05
75656;BME280;64252;51.094;13.714;2023-04-24T10:35:18;99238.81;;;18.88;50.78
75656;BME280;64252;51.094;13.714;2023-04-24T10:37:56;99236.00;;;19.06;49.37
75656;BME280;64252;51.094;13.714;2023-04-24T10:40:27;99237.28;;;19.60;49.30
75656;BME280;64252;51.094;13.714;2023-04-24T10:42:55;99234.13;;;19.67;49.26
75656;BME280;64252;51.094;13.714;2023-04-24T10:45:22;99241.38;;;19.04;48.85
75656;BME280;64252;51.094;13.714;2023-04-24T10:50:41;99246.41;;;18.64;49.63
75656;BME280;64252;51.094;13.714;2023-04-24T10:53:15;99247.97;;;18.65;50.57
75656;BME280;64252;51.094;13.714;2023-04-24T10:58:09;99241.25;;;18.50;50.91
75656;BME280;64252;51.094;13.714;2023-04-24T11:00:39;99240.38;;;18.71;50.26
75656;BME280;64252;51.094;13.714;2023-04-24T11:03:06;99235.84;;;19.28;49.52
75656;BME280;64252;51.094;13.714;2023-04-24T11:06:04;99240.47;;;19.25;49.33
75656;BME280;64252;51.094;13.714;2023-04-24T11:08:38;99248.69;;;18.47;51.53
75656;BME280;64252;51.094;13.714;2023-04-24T11:11:08;99240.50;;;18.27;51.77
75656;BME280;64252;51.094;13.714;2023-04-24T11:19:20;99245.75;;;17.98;52.67
75656;BME280;64252;51.094;13.714;2023-04-24T11:22:01;99244.16;;;17.53;53.63
75656;BME280;64252;51.094;13.714;2023-04-24T11:24:48;99253.31;;;17.48;54.51
75656;BME280;64252;51.094;13.714;2023-04-24T11:27:21;99255.56;;;17.53;54.88
75656;BME280;64252;51.094;13.714;2023-04-24T11:35:18;99254.69;;;17.22;54.49
75656;BME280;64252;51.094;13.714;2023-04-24T11:37:47;99259.22;;;16.98;53.63
75656;BME280;64252;51.094;13.714;2023-04-24T11:40:18;99264.81;;;16.89;53.30
75656;BME280;64252;51.094;13.714;2023-04-24T11:42:52;99265.84;;;16.95;52.95
75656;BME280;64252;51.094;13.714;2023-04-24T11:45:21;99258.19;;;16.92;53.21
75656;BME280;64252;51.094;13.714;2023-04-24T11:47:47;99251.41;;;17.11;54.51
75656;BME280;64252;51.094;13.714;2023-04-24T11:50:18;99243.75;;;17.42;54.07
75656;BME280;64252;51.094;13.714;2023-04-24T11:52:46;99245.47;;;17.40;53.92
75656;BME280;64252;51.094;13.714;2023-04-24T11:57:53;99243.44;;;17.06;54.79
75656;BME280;64252;51.094;13.714;2023-04-24T12:00:20;99253.81;;;16.65;55.56
75656;BME280;64252;51.094;13.714;2023-04-24T12:02:46;99252.75;;;16.21;56.78
75656;BME280;64252;51.094;13.714;2023-04-24T12:05:22;99253.66;;;16.06;58.54
75656;BME280;64252;51.094;13.714;2023-04-24T12:07:48;99257.97;;;15.98;58.37
75656;BME280;64252;51.094;13.714;2023-04-24T12:10:19;99271.75;;;15.87;58.67
75656;BME280;64252;51.094;13.714;2023-04-24T12:12:45;99262.34;;;15.73;57.01
75656;BME280;64252;51.094;13.714;2023-04-24T12:15:11;99260.69;;;15.89;56.42
75656;BME280;64252;51.094;13.714;2023-04-24T12:17:41;99261.19;;;16.25;55.71
75656;BME280;64252;51.094;13.714;2023-04-24T12:20:07;99263.25;;;16.75;54.60
75656;BME280;64252;51.094;13.714;2023-04-24T12:22:54;99248.84;;;16.91;54.75
75656;BME280;64252;51.094;13.714;2023-04-24T12:25:28;99248.25;;;17.31;52.80
75656;BME280;64252;51.094;13.714;2023-04-24T12:27:55;99251.16;;;17.18;52.12
75656;BME280;64252;51.094;13.714;2023-04-24T12:30:26;99254.91;;;17.49;52.01
75656;BME280;64252;51.094;13.714;2023-04-24T12:33:01;99253.75;;;17.60;51.49
75656;BME280;64252;51.094;13.714;2023-04-24T12:35:29;99256.69;;;17.34;48.71
75656;BME280;64252;51.094;13.714;2023-04-24T12:38:05;99250.66;;;17.54;49.31
75656;BME280;64252;51.094;13.714;2023-04-24T12:40:31;99263.41;;;17.40;46.89
75656;BME280;64252;51.094;13.714;2023-04-24T12:42:57;99268.44;;;17.36;48.30
75656;BME280;64252;51.094;13.714;2023-04-24T12:45:22;99271.72;;;17.13;48.84
75656;BME280;64252;51.094;13.714;2023-04-24T12:47:50;99276.69;;;16.87;48.47
75656;BME280;64252;51.094;13.714;2023-04-24T12:50:16;99270.44;;;16.80;49.25
75656;BME280;64252;51.094;13.714;2023-04-24T12:52:42;99272.44;;;16.92;49.61
75656;BME280;64252;51.094;13.714;2023-04-24T12:55:08;99281.34;;;16.94;48.29
75656;BME280;64252;51.094;13.714;2023-04-24T12:57:36;99280.09;;;17.29;48.07
75656;BME280;64252;51.094;13.714;2023-04-24T13:00:03;99273.75;;;17.60;46.59
75656;BME280;64252;51.094;13.714;2023-04-24T13:02:30;99262.50;;;17.87;46.46
75656;BME280;64252;51.094;13.714;2023-04-24T13:04:57;99265.09;;;17.72;45.71
75656;BME280;64252;51.094;13.714;2023-04-24T13:07:23;99261.78;;;17.74;46.69
75656;BME280;64252;51.094;13.714;2023-04-24T13:09:50;99256.44;;;17.85;46.02
75656;BME280;64252;51.094;13.714;2023-04-24T13:12:15;99254.78;;;18.27;44.78
75656;BME280;64252;51.094;13.714;2023-04-24T13:14:41;99240.88;;;18.38;44.24